sensor_id;sensor_type;location;lat;lon;timestamp;pressure;altitude;pressure_sealevel;temperature;humidity
37852;BME280;23691;52.486;4.650;2023-06-26T00:01:41;101197.69;;;27.12;45.86
37852;BME280;23691;52.486;4.650;2023-06-26T00:04:13;101202.63;;;27.10;45.80
37852;BME280;23691;52.486;4.650;2023-06-26T00:06:40;101203.97;;;27.07;45.86
37852;BME280;23691;52.486;4.650;2023-06-26T00:09:07;101194.91;;;27.02;46.33
37852;BME280;23691;52.486;4.650;2023-06-26T00:11:35;101197.06;;;26.94;46.64
37852;BME280;23691;52.486;4.650;2023-06-26T00:14:01;101201.13;;;26.87;47.14
37852;BME280;23691;52.486;4.650;2023-06-26T00:16:27;101199.16;;;26.77;47.36
37852;BME280;23691;52.486;4.650;2023-06-26T00:18:53;101208.44;;;26.71;47.54
37852;BME280;23691;52.486;4.650;2023-06-26T00:21:19;101215.78;;;26.65;48.16
37852;BME280;23691;52.486;4.650;2023-06-26T00:23:45;101210.56;;;26.59;48.16
37852;BME280;23691;52.486;4.650;2023-06-26T00:26:13;101211.00;;;26.50;48.74
37852;BME280;23691;52.486;4.650;2023-06-26T00:28:41;101225.75;;;26.44;48.97
37852;BME280;23691;52.486;4.650;2023-06-26T00:31:06;101218.03;;;26.36;48.99
37852;BME280;23691;52.486;4.650;2023-06-26T00:33:32;101220.69;;;26.31;49.58
37852;BME280;23691;52.486;4.650;2023-06-26T00:35:59;101214.34;;;26.25;49.47
37852;BME280;23691;52.486;4.650;2023-06-26T00:38:25;101208.53;;;26.17;50.00
37852;BME280;23691;52.486;4.650;2023-06-26T00:40:50;101210.91;;;26.08;50.20
37852;BME280;23691;52.486;4.650;2023-06-26T00:43:19;101216.56;;;26.01;50.10
37852;BME280;23691;52.486;4.650;2023-06-26T00:45:47;101219.78;;;25.93;50.77
37852;BME280;23691;52.486;4.650;2023-06-26T00:48:13;101217.50;;;25.85;50.40
37852;BME280;23691;52.486;4.650;2023-06-26T00:50:41;101237.69;;;25.79;50.84
37852;BME280;23691;52.486;4.650;2023-06-26T00:53:07;101233.19;;;25.67;51.98
37852;BME280;23691;52.486;4.650;2023-06-26T00:55:34;101228.66;;;25.56;51.84
37852;BME280;23691;52.486;4.650;2023-06-26T00:58:01;101228.84;;;25.49;51.87
37852;BME280;23691;52.486;4.650;2023-06-26T01:00:26;101231.78;;;25.43;52.60
37852;BME280;23691;52.486;4.650;2023-06-26T01:02:52;101231.97;;;25.36;52.58
37852;BME280;23691;52.486;4.650;2023-06-26T01:05:18;101222.00;;;25.30;52.75
37852;BME280;23691;52.486;4.650;2023-06-26T01:07:49;101226.59;;;25.24;52.66
37852;BME280;23691;52.486;4.650;2023-06-26T01:10:15;101222.97;;;25.19;53.11
37852;BME280;23691;52.486;4.650;2023-06-26T01:12:43;101221.47;;;25.11;53.69
37852;BME280;23691;52.486;4.650;2023-06-26T01:15:10;101225.19;;;25.05;53.61
37852;BME280;23691;52.486;4.650;2023-06-26T01:17:37;101227.28;;;24.98;53.85
37852;BME280;23691;52.486;4.650;2023-06-26T01:20:05;101230.78;;;24.93;53.70
37852;BME280;23691;52.486;4.650;2023-06-26T01:22:59;101232.09;;;24.91;53.98
37852;BME280;23691;52.486;4.650;2023-06-26T01:25:41;101228.16;;;24.81;54.31
37852;BME280;23691;52.486;4.650;2023-06-26T01:28:10;101237.69;;;24.79;54.98
37852;BME280;23691;52.486;4.650;2023-06-26T01:30:41;101225.28;;;24.71;55.50
37852;BME280;23691;52.486;4.650;2023-06-26T01:33:08;101231.13;;;24.63;55.74
37852;BME280;23691;52.486;4.650;2023-06-26T01:35:35;101230.22;;;24.57;55.59
37852;BME280;23691;52.486;4.650;2023-06-26T01:38:18;101235.78;;;24.62;55.76
37852;BME280;23691;52.486;4.650;2023-06-26T01:40:51;101241.25;;;24.62;55.83
37852;BME280;23691;52.486;4.650;2023-06-26T01:46:18;101215.94;;;24.38;57.08
37852;BME280;23691;52.486;4.650;2023-06-26T01:48:51;101227.13;;;24.37;56.97
37852;BME280;23691;52.486;4.650;2023-06-26T01:51:27;101230.94;;;24.36;57.05
37852;BME280;23691;52.486;4.650;2023-06-26T01:53:57;101230.59;;;24.32;57.06
37852;BME280;23691;52.486;4.650;2023-06-26T01:56:24;101239.53;;;24.28;56.66
37852;BME280;23691;52.486;4.650;2023-06-26T01:58:54;101246.47;;;24.18;56.39
37852;BME280;23691;52.486;4.650;2023-06-26T02:01:21;101240.69;;;24.15;56.78
37852;BME280;23691;52.486;4.650;2023-06-26T02:03:49;101233.22;;;24.10;56.30
37852;BME280;23691;52.486;4.650;2023-06-26T02:06:14;101229.56;;;24.05;56.65
37852;BME280;23691;52.486;4.650;2023-06-26T02:08:40;101236.59;;;24.00;56.20
37852;BME280;23691;52.486;4.650;2023-06-26T02:11:07;101235.06;;;23.93;56.52
37852;BME280;23691;52.486;4.650;2023-06-26T02:13:33;101233.91;;;23.89;56.50
37852;BME280;23691;52.486;4.650;2023-06-26T02:15:58;101234.63;;;23.84;56.92
37852;BME280;23691;52.486;4.650;2023-06-26T02:18:27;101238.09;;;23.79;56.80
37852;BME280;23691;52.486;4.650;2023-06-26T02:20:55;101231.22;;;23.77;56.57
37852;BME280;23691;52.486;4.650;2023-06-26T02:23:21;101234.63;;;23.72;56.88
37852;BME280;23691;52.486;4.650;2023-06-26T02:25:49;101247.97;;;23.69;57.24
37852;BME280;23691;52.486;4.650;2023-06-26T02:28:14;101245.72;;;23.66;57.52
37852;BME280;23691;52.486;4.650;2023-06-26T02:30:40;101255.47;;;23.62;57.01
37852;BME280;23691;52.486;4.650;2023-06-26T02:33:07;101244.44;;;23.56;57.09
37852;BME280;23691;52.486;4.650;2023-06-26T02:35:32;101247.88;;;23.52;57.23
37852;BME280;23691;52.486;4.650;2023-06-26T02:37:58;101253.56;;;23.50;58.35
37852;BME280;23691;52.486;4.650;2023-06-26T02:40:26;101243.72;;;23.49;58.39
37852;BME280;23691;52.486;4.650;2023-06-26T02:42:52;101239.34;;;23.48;58.24
37852;BME280;23691;52.486;4.650;2023-06-26T02:45:17;101246.25;;;23.39;58.58
37852;BME280;23691;52.486;4.650;2023-06-26T02:47:43;101255.75;;;23.36;58.44
37852;BME280;23691;52.486;4.650;2023-06-26T02:50:09;101265.59;;;23.38;58.63
37852;BME280;23691;52.486;4.650;2023-06-26T02:52:34;101260.84;;;23.33;58.51
37852;BME280;23691;52.486;4.650;2023-06-26T02:55:00;101271.41;;;23.29;59.07
37852;BME280;23691;52.486;4.650;2023-06-26T02:57:28;101271.41;;;23.29;59.05
37852;BME280;23691;52.486;4.650;2023-06-26T02:59:54;101283.06;;;23.25;58.62
37852;BME280;23691;52.486;4.650;2023-06-26T03:02:19;101286.75;;;23.19;59.03
37852;BME280;23691;52.486;4.650;2023-06-26T03:04:45;101274.25;;;23.11;59.14
37852;BME280;23691;52.486;4.650;2023-06-26T03:07:10;101284.00;;;23.07;59.23
37852;BME280;23691;52.486;4.650;2023-06-26T03:09:36;101289.09;;;23.03;59.15
37852;BME280;23691;52.486;4.650;2023-06-26T03:12:01;101293.13;;;23.01;59.13
37852;BME280;23691;52.486;4.650;2023-06-26T03:14:27;101296.13;;;22.99;58.89
37852;BME280;23691;52.486;4.650;2023-06-26T03:16:53;101291.69;;;22.98;59.02
37852;BME280;23691;52.486;4.650;2023-06-26T03:19:26;101294.44;;;22.98;58.73
37852;BME280;23691;52.486;4.650;2023-06-26T03:21:53;101308.53;;;22.95;59.31
37852;BME280;23691;52.486;4.650;2023-06-26T03:24:20;101315.28;;;22.92;58.96
37852;BME280;23691;52.486;4.650;2023-06-26T03:26:46;101328.69;;;22.94;59.22
37852;BME280;23691;52.486;4.650;2023-06-26T03:29:12;101320.38;;;22.89;59.42
37852;BME280;23691;52.486;4.650;2023-06-26T03:31:40;101327.97;;;22.87;59.90
37852;BME280;23691;52.486;4.650;2023-06-26T03:34:15;101321.31;;;22.83;59.92
37852;BME280;23691;52.486;4.650;2023-06-26T03:36:40;101324.88;;;22.83;59.77
37852;BME280;23691;52.486;4.650;2023-06-26T03:39:08;101328.53;;;22.77;60.08
37852;BME280;23691;52.486;4.650;2023-06-26T03:41:37;101322.34;;;22.70;60.07
37852;BME280;23691;52.486;4.650;2023-06-26T03:44:03;101334.56;;;22.67;60.42
37852;BME280;23691;52.486;4.650;2023-06-26T03:46:29;101323.66;;;22.67;60.40
37852;BME280;23691;52.486;4.650;2023-06-26T03:49:00;101338.94;;;22.68;60.55
37852;BME280;23691;52.486;4.650;2023-06-26T03:51:27;101334.19;;;22.64;60.30
37852;BME280;23691;52.486;4.650;2023-06-26T03:53:53;101340.94;;;22.61;60.57
37852;BME280;23691;52.486;4.650;2023-06-26T03:56:18;101332.16;;;22.59;60.38
37852;BME280;23691;52.486;4.650;2023-06-26T03:58:44;101347.22;;;22.62;60.36
37852;BME280;23691;52.486;4.650;2023-06-26T04:01:10;101349.13;;;22.61;60.36
37852;BME280;23691;52.486;4.650;2023-06-26T04:03:35;101354.81;;;22.60;60.45
37852;BME280;23691;52.486;4.650;2023-06-26T04:06:03;101353.16;;;22.59;60.35
37852;BME280;23691;52.486;4.650;2023-06-26T04:08:28;101349.59;;;22.58;60.33
37852;BME280;23691;52.486;4.650;2023-06-26T04:10:54;101354.91;;;22.53;60.16
37852;BME280;23691;52.486;4.650;2023-06-26T04:13:22;101362.47;;;22.51;60.69
37852;BME280;23691;52.486;4.650;2023-06-26T04:15:48;101374.47;;;22.50;60.30
37852;BME280;23691;52.486;4.650;2023-06-26T04:18:13;101369.63;;;22.52;60.43
37852;BME280;23691;52.486;4.650;2023-06-26T04:21:09;101371.63;;;22.57;59.90
37852;BME280;23691;52.486;4.650;2023-06-26T04:23:37;101372.34;;;22.52;60.32
37852;BME280;23691;52.486;4.650;2023-06-26T04:26:06;101371.28;;;22.53;60.28
37852;BME280;23691;52.486;4.650;2023-06-26T04:28:32;101375.44;;;22.56;59.92
37852;BME280;23691;52.486;4.650;2023-06-26T04:30:59;101374.00;;;22.53;59.86
37852;BME280;23691;52.486;4.650;2023-06-26T04:33:25;101377.31;;;22.55;60.28
37852;BME280;23691;52.486;4.650;2023-06-26T04:35:51;101392.63;;;22.56;59.62
37852;BME280;23691;52.486;4.650;2023-06-26T04:38:37;101389.41;;;22.59;59.44
37852;BME280;23691;52.486;4.650;2023-06-26T04:41:03;101391.09;;;22.60;59.53
37852;BME280;23691;52.486;4.650;2023-06-26T04:43:29;101395.59;;;22.55;59.82
37852;BME280;23691;52.486;4.650;2023-06-26T04:46:02;101402.09;;;22.54;59.45
37852;BME280;23691;52.486;4.650;2023-06-26T04:48:27;101401.25;;;22.53;59.85
37852;BME280;23691;52.486;4.650;2023-06-26T04:50:54;101400.06;;;22.49;60.06
37852;BME280;23691;52.486;4.650;2023-06-26T04:53:20;101421.44;;;22.52;59.74
37852;BME280;23691;52.486;4.650;2023-06-26T04:55:50;101413.25;;;22.52;59.63
37852;BME280;23691;52.486;4.650;2023-06-26T04:58:18;101417.84;;;22.51;59.61
37852;BME280;23691;52.486;4.650;2023-06-26T05:00:46;101425.72;;;22.60;59.75
37852;BME280;23691;52.486;4.650;2023-06-26T05:03:17;101422.88;;;22.66;59.49
37852;BME280;23691;52.486;4.650;2023-06-26T05:05:43;101429.09;;;22.73;59.64
37852;BME280;23691;52.486;4.650;2023-06-26T05:08:20;101426.03;;;22.82;59.67
37852;BME280;23691;52.486;4.650;2023-06-26T05:10:48;101428.66;;;22.88;59.40
37852;BME280;23691;52.486;4.650;2023-06-26T05:13:14;101430.34;;;22.89;59.57
37852;BME280;23691;52.486;4.650;2023-06-26T05:15:44;101443.88;;;22.96;59.41
37852;BME280;23691;52.486;4.650;2023-06-26T05:18:10;101444.03;;;23.01;59.10
37852;BME280;23691;52.486;4.650;2023-06-26T05:20:36;101433.28;;;23.06;59.33
37852;BME280;23691;52.486;4.650;2023-06-26T05:23:02;101452.13;;;23.08;59.50
37852;BME280;23691;52.486;4.650;2023-06-26T05:25:29;101450.22;;;23.08;58.87
37852;BME280;23691;52.486;4.650;2023-06-26T05:27:56;101449.53;;;23.13;58.86
37852;BME280;23691;52.486;4.650;2023-06-26T05:30:23;101455.38;;;23.17;58.90
37852;BME280;23691;52.486;4.650;2023-06-26T05:32:51;101457.06;;;23.29;58.82
37852;BME280;23691;52.486;4.650;2023-06-26T05:35:27;101461.94;;;23.39;58.63
37852;BME280;23691;52.486;4.650;2023-06-26T05:37:54;101463.72;;;23.45;58.21
37852;BME280;23691;52.486;4.650;2023-06-26T05:40:24;101473.72;;;23.51;58.21
37852;BME280;23691;52.486;4.650;2023-06-26T05:42:50;101476.81;;;23.67;57.26
37852;BME280;23691;52.486;4.650;2023-06-26T05:45:16;101480.28;;;23.74;57.67
37852;BME280;23691;52.486;4.650;2023-06-26T05:47:42;101474.22;;;23.84;57.30
37852;BME280;23691;52.486;4.650;2023-06-26T05:50:13;101489.22;;;23.93;56.42
37852;BME280;23691;52.486;4.650;2023-06-26T05:52:42;101498.94;;;23.89;56.66
37852;BME280;23691;52.486;4.650;2023-06-26T05:58:33;101495.94;;;24.02;55.97
37852;BME280;23691;52.486;4.650;2023-06-26T06:01:00;101496.44;;;24.11;55.66
37852;BME280;23691;52.486;4.650;2023-06-26T06:03:25;101503.94;;;24.04;55.08
37852;BME280;23691;52.486;4.650;2023-06-26T06:05:51;101493.72;;;24.11;55.21
37852;BME280;23691;52.486;4.650;2023-06-26T06:08:17;101493.72;;;24.11;55.28
37852;BME280;23691;52.486;4.650;2023-06-26T06:10:48;101501.78;;;23.94;55.22
37852;BME280;23691;52.486;4.650;2023-06-26T06:13:22;101504.63;;;23.87;55.69
37852;BME280;23691;52.486;4.650;2023-06-26T06:15:55;101520.81;;;23.89;55.73
37852;BME280;23691;52.486;4.650;2023-06-26T06:19:13;101531.88;;;24.17;55.10
37852;BME280;23691;52.486;4.650;2023-06-26T06:21:46;101529.94;;;24.18;54.98
37852;BME280;23691;52.486;4.650;2023-06-26T06:24:14;101532.78;;;24.11;54.65
37852;BME280;23691;52.486;4.650;2023-06-26T06:26:39;101533.16;;;24.03;54.84
37852;BME280;23691;52.486;4.650;2023-06-26T06:29:05;101534.09;;;23.97;55.00
37852;BME280;23691;52.486;4.650;2023-06-26T06:31:34;101532.09;;;24.04;54.94
37852;BME280;23691;52.486;4.650;2023-06-26T06:34:00;101541.13;;;23.93;55.14
37852;BME280;23691;52.486;4.650;2023-06-26T06:36:25;101539.59;;;23.85;54.85
37852;BME280;23691;52.486;4.650;2023-06-26T06:38:51;101541.94;;;23.82;54.88
37852;BME280;23691;52.486;4.650;2023-06-26T06:41:33;101555.25;;;23.78;55.33
37852;BME280;23691;52.486;4.650;2023-06-26T06:44:04;101556.56;;;23.75;54.76
37852;BME280;23691;52.486;4.650;2023-06-26T06:46:39;101565.09;;;23.79;54.86
37852;BME280;23691;52.486;4.650;2023-06-26T06:49:09;101569.97;;;23.89;54.54
37852;BME280;23691;52.486;4.650;2023-06-26T06:51:35;101578.31;;;23.94;54.08
37852;BME280;23691;52.486;4.650;2023-06-26T06:54:02;101581.53;;;23.91;53.87
37852;BME280;23691;52.486;4.650;2023-06-26T06:56:55;101587.31;;;23.94;53.79
37852;BME280;23691;52.486;4.650;2023-06-26T06:59:43;101590.06;;;23.94;53.62
37852;BME280;23691;52.486;4.650;2023-06-26T07:02:33;101588.31;;;24.00;52.77
37852;BME280;23691;52.486;4.650;2023-06-26T07:05:49;101577.38;;;24.00;52.41
37852;BME280;23691;52.486;4.650;2023-06-26T07:08:25;101599.38;;;24.05;52.40
37852;BME280;23691;52.486;4.650;2023-06-26T07:10:59;101592.00;;;24.06;53.00
37852;BME280;23691;52.486;4.650;2023-06-26T07:13:25;101586.53;;;24.06;52.92
37852;BME280;23691;52.486;4.650;2023-06-26T07:15:52;101583.91;;;24.11;52.52
37852;BME280;23691;52.486;4.650;2023-06-26T07:18:19;101594.38;;;24.14;52.66
37852;BME280;23691;52.486;4.650;2023-06-26T07:20:50;101598.28;;;24.06;52.37
37852;BME280;23691;52.486;4.650;2023-06-26T07:23:23;101613.25;;;24.04;51.90
37852;BME280;23691;52.486;4.650;2023-06-26T07:25:50;101612.66;;;24.02;51.28
37852;BME280;23691;52.486;4.650;2023-06-26T07:28:16;101620.50;;;23.98;52.15
37852;BME280;23691;52.486;4.650;2023-06-26T07:30:53;101616.53;;;23.82;51.76
37852;BME280;23691;52.486;4.650;2023-06-26T07:33:20;101635.56;;;23.89;51.55
37852;BME280;23691;52.486;4.650;2023-06-26T07:40:13;101625.38;;;23.96;51.21
37852;BME280;23691;52.486;4.650;2023-06-26T07:50:08;101651.22;;;24.35;50.85
37852;BME280;23691;52.486;4.650;2023-06-26T07:52:58;101647.75;;;24.40;50.84
37852;BME280;23691;52.486;4.650;2023-06-26T07:55:24;101646.00;;;24.46;50.43
37852;BME280;23691;52.486;4.650;2023-06-26T07:57:51;101644.22;;;24.51;49.98
37852;BME280;23691;52.486;4.650;2023-06-26T08:03:15;101661.34;;;24.58;49.73
37852;BME280;23691;52.486;4.650;2023-06-26T08:06:14;101655.72;;;24.41;49.54
37852;BME280;23691;52.486;4.650;2023-06-26T08:09:33;101656.47;;;24.49;49.26
37852;BME280;23691;52.486;4.650;2023-06-26T08:12:28;101668.81;;;24.51;49.14
37852;BME280;23691;52.486;4.650;2023-06-26T08:15:46;101665.50;;;24.61;48.79
37852;BME280;23691;52.486;4.650;2023-06-26T08:19:07;101672.16;;;24.77;48.83
37852;BME280;23691;52.486;4.650;2023-06-26T08:22:00;101670.25;;;24.77;48.30
37852;BME280;23691;52.486;4.650;2023-06-26T08:24:27;101665.50;;;24.73;48.60
37852;BME280;23691;52.486;4.650;2023-06-26T08:26:56;101675.03;;;24.70;48.17
37852;BME280;23691;52.486;4.650;2023-06-26T08:29:27;101680.59;;;24.75;48.83
37852;BME280;23691;52.486;4.650;2023-06-26T08:31:52;101668.50;;;24.71;48.26
37852;BME280;23691;52.486;4.650;2023-06-26T08:34:21;101678.47;;;24.66;48.04
37852;BME280;23691;52.486;4.650;2023-06-26T08:36:47;101675.38;;;24.62;48.48
37852;BME280;23691;52.486;4.650;2023-06-26T08:39:13;101679.31;;;24.54;48.54
37852;BME280;23691;52.486;4.650;2023-06-26T08:41:39;101682.88;;;24.55;48.14
37852;BME280;23691;52.486;4.650;2023-06-26T08:44:13;101691.81;;;24.62;48.10
37852;BME280;23691;52.486;4.650;2023-06-26T08:54:46;101695.59;;;24.61;47.58
37852;BME280;23691;52.486;4.650;2023-06-26T09:01:06;101699.28;;;24.78;48.05
37852;BME280;23691;52.486;4.650;2023-06-26T09:04:44;101712.97;;;24.90;47.83
37852;BME280;23691;52.486;4.650;2023-06-26T09:23:26;101730.09;;;25.21;46.46
37852;BME280;23691;52.486;4.650;2023-06-26T09:26:07;101741.06;;;25.21;46.99
37852;BME280;23691;52.486;4.650;2023-06-26T09:32:19;101744.47;;;25.16;46.46
37852;BME280;23691;52.486;4.650;2023-06-26T09:34:58;101749.59;;;25.13;46.32
37852;BME280;23691;52.486;4.650;2023-06-26T09:37:33;101748.75;;;25.12;46.85
37852;BME280;23691;52.486;4.650;2023-06-26T09:40:54;101760.81;;;25.23;46.27
37852;BME280;23691;52.486;4.650;2023-06-26T09:43:20;101765.00;;;25.25;46.75
37852;BME280;23691;52.486;4.650;2023-06-26T09:45:48;101772.34;;;25.37;46.22
37852;BME280;23691;52.486;4.650;2023-06-26T09:48:16;101771.28;;;25.38;45.97
37852;BME280;23691;52.486;4.650;2023-06-26T09:50:45;101774.72;;;25.45;46.37
37852;BME280;23691;52.486;4.650;2023-06-26T09:53:23;101763.16;;;25.43;46.36
37852;BME280;23691;52.486;4.650;2023-06-26T09:56:04;101778.28;;;25.45;46.30
37852;BME280;23691;52.486;4.650;2023-06-26T09:58:31;101777.06;;;25.53;45.64
37852;BME280;23691;52.486;4.650;2023-06-26T10:01:16;101786.34;;;25.52;44.98
37852;BME280;23691;52.486;4.650;2023-06-26T10:03:43;101785.97;;;25.72;45.21
37852;BME280;23691;52.486;4.650;2023-06-26T10:14:23;101813.22;;;26.19;44.25
37852;BME280;23691;52.486;4.650;2023-06-26T10:16:57;101814.06;;;26.20;43.71
37852;BME280;23691;52.486;4.650;2023-06-26T10:19:26;101809.06;;;26.17;44.51
37852;BME280;23691;52.486;4.650;2023-06-26T10:21:53;101813.88;;;26.09;44.57
37852;BME280;23691;52.486;4.650;2023-06-26T10:24:21;101810.84;;;26.11;44.27
37852;BME280;23691;52.486;4.650;2023-06-26T10:26:52;101824.38;;;26.01;43.96
37852;BME280;23691;52.486;4.650;2023-06-26T10:29:20;101816.16;;;26.01;44.48
37852;BME280;23691;52.486;4.650;2023-06-26T10:31:53;101812.97;;;25.92;44.43
37852;BME280;23691;52.486;4.650;2023-06-26T10:34:26;101810.97;;;25.87;43.71
37852;BME280;23691;52.486;4.650;2023-06-26T10:37:02;101817.16;;;25.83;43.79
37852;BME280;23691;52.486;4.650;2023-06-26T10:42:19;101837.25;;;26.00;44.10
37852;BME280;23691;52.486;4.650;2023-06-26T10:44:48;101839.66;;;25.97;44.00
37852;BME280;23691;52.486;4.650;2023-06-26T10:47:32;101831.28;;;26.03;43.69
37852;BME280;23691;52.486;4.650;2023-06-26T10:50:20;101843.16;;;25.68;44.69
37852;BME280;23691;52.486;4.650;2023-06-26T10:55:36;101848.63;;;25.92;43.72
37852;BME280;23691;52.486;4.650;2023-06-26T10:58:04;101850.16;;;25.88;44.40
37852;BME280;23691;52.486;4.650;2023-06-26T11:00:30;101857.78;;;25.98;43.67
37852;BME280;23691;52.486;4.650;2023-06-26T11:03:22;101873.09;;;26.10;43.65
37852;BME280;23691;52.486;4.650;2023-06-26T11:06:09;101877.13;;;26.20;43.50
37852;BME280;23691;52.486;4.650;2023-06-26T11:11:13;101875.09;;;26.55;42.76
37852;BME280;23691;52.486;4.650;2023-06-26T11:13:45;101867.16;;;26.71;42.61
37852;BME280;23691;52.486;4.650;2023-06-26T11:16:12;101860.31;;;26.57;42.96
37852;BME280;23691;52.486;4.650;2023-06-26T11:18:39;101869.53;;;26.67;42.87
37852;BME280;23691;52.486;4.650;2023-06-26T11:21:08;101866.56;;;26.69;42.66
37852;BME280;23691;52.486;4.650;2023-06-26T11:23:36;101872.34;;;26.55;42.91
37852;BME280;23691;52.486;4.650;2023-06-26T11:26:18;101887.63;;;26.51;42.85
37852;BME280;23691;52.486;4.650;2023-06-26T11:28:55;101893.47;;;26.55;42.89
37852;BME280;23691;52.486;4.650;2023-06-26T11:31:25;101889.09;;;26.42;43.21
37852;BME280;23691;52.486;4.650;2023-06-26T11:33:52;101897.19;;;26.49;42.99
37852;BME280;23691;52.486;4.650;2023-06-26T11:36:18;101908.09;;;26.32;42.79
37852;BME280;23691;52.486;4.650;2023-06-26T11:38:43;101906.31;;;26.26;43.24
37852;BME280;23691;52.486;4.650;2023-06-26T11:41:09;101914.00;;;26.41;42.57
37852;BME280;23691;52.486;4.650;2023-06-26T11:43:36;101913.75;;;26.54;42.65
37852;BME280;23691;52.486;4.650;2023-06-26T11:46:01;101915.78;;;26.59;42.44
37852;BME280;23691;52.486;4.650;2023-06-26T11:48:29;101922.47;;;26.51;42.27
37852;BME280;23691;52.486;4.650;2023-06-26T11:50:55;101929.28;;;26.48;43.10
37852;BME280;23691;52.486;4.650;2023-06-26T11:53:21;101937.31;;;26.67;42.74
37852;BME280;23691;52.486;4.650;2023-06-26T11:55:46;101937.88;;;26.81;42.10
37852;BME280;23691;52.486;4.650;2023-06-26T11:58:12;101938.41;;;26.66;41.29
37852;BME280;23691;52.486;4.650;2023-06-26T12:00:43;101929.41;;;26.53;41.80
37852;BME280;23691;52.486;4.650;2023-06-26T12:03:09;101932.94;;;26.66;42.21
37852;BME280;23691;52.486;4.650;2023-06-26T12:05:35;101922.38;;;26.74;41.62
37852;BME280;23691;52.486;4.650;2023-06-26T12:08:01;101929.63;;;26.81;41.13
37852;BME280;23691;52.486;4.650;2023-06-26T12:10:28;101936.03;;;26.86;41.23
37852;BME280;23691;52.486;4.650;2023-06-26T12:12:57;101934.38;;;26.85;41.22
37852;BME280;23691;52.486;4.650;2023-06-26T12:15:24;101947.63;;;27.05;40.87
37852;BME280;23691;52.486;4.650;2023-06-26T12:17:51;101935.41;;;27.13;41.31
37852;BME280;23691;52.486;4.650;2023-06-26T12:20:21;101936.25;;;27.30;41.20
37852;BME280;23691;52.486;4.650;2023-06-26T12:22:48;101952.22;;;27.33;40.72
37852;BME280;23691;52.486;4.650;2023-06-26T12:25:22;101949.31;;;27.40;40.73
37852;BME280;23691;52.486;4.650;2023-06-26T12:27:48;101954.47;;;27.19;40.91
37852;BME280;23691;52.486;4.650;2023-06-26T12:30:15;101961.53;;;27.15;40.96
37852;BME280;23691;52.486;4.650;2023-06-26T12:32:50;101951.13;;;27.01;41.10
37852;BME280;23691;52.486;4.650;2023-06-26T12:35:16;101963.00;;;26.89;41.22
37852;BME280;23691;52.486;4.650;2023-06-26T12:37:44;101947.25;;;26.85;41.12
37852;BME280;23691;52.486;4.650;2023-06-26T12:40:20;101967.75;;;26.94;40.86
37852;BME280;23691;52.486;4.650;2023-06-26T12:42:47;101970.00;;;27.14;40.67
37852;BME280;23691;52.486;4.650;2023-06-26T12:45:13;101974.66;;;27.42;40.22
37852;BME280;23691;52.486;4.650;2023-06-26T12:47:39;101962.41;;;27.33;40.47
37852;BME280;23691;52.486;4.650;2023-06-26T12:50:07;101959.53;;;27.61;40.06
37852;BME280;23691;52.486;4.650;2023-06-26T12:52:33;101979.38;;;27.47;40.30
37852;BME280;23691;52.486;4.650;2023-06-26T12:54:58;101962.72;;;27.36;40.39
37852;BME280;23691;52.486;4.650;2023-06-26T12:57:24;101955.47;;;27.64;40.07
37852;BME280;23691;52.486;4.650;2023-06-26T12:59:51;101978.28;;;27.81;40.06
37852;BME280;23691;52.486;4.650;2023-06-26T13:02:16;101964.94;;;27.73;39.82
37852;BME280;23691;52.486;4.650;2023-06-26T13:04:43;101975.31;;;27.32;40.61
37852;BME280;23691;52.486;4.650;2023-06-26T13:07:12;101968.78;;;27.72;39.97
37852;BME280;23691;52.486;4.650;2023-06-26T13:09:38;101976.81;;;27.23;40.18
37852;BME280;23691;52.486;4.650;2023-06-26T13:12:09;101963.94;;;27.12;40.48
37852;BME280;23691;52.486;4.650;2023-06-26T13:14:34;101968.56;;;27.23;40.42
37852;BME280;23691;52.486;4.650;2023-06-26T13:17:01;101973.03;;;27.63;39.92
37852;BME280;23691;52.486;4.650;2023-06-26T13:19:26;101976.88;;;27.28;40.41
37852;BME280;23691;52.486;4.650;2023-06-26T13:21:52;101983.53;;;27.83;39.35
37852;BME280;23691;52.486;4.650;2023-06-26T13:24:17;101972.69;;;27.76;39.19
37852;BME280;23691;52.486;4.650;2023-06-26T13:26:43;101973.28;;;27.61;39.74
37852;BME280;23691;52.486;4.650;2023-06-26T13:29:09;101983.22;;;28.18;38.67
37852;BME280;23691;52.486;4.650;2023-06-26T13:31:35;101984.28;;;28.17;38.45
37852;BME280;23691;52.486;4.650;2023-06-26T13:34:07;101968.88;;;28.38;38.28
37852;BME280;23691;52.486;4.650;2023-06-26T13:36:37;101968.53;;;28.57;37.97
37852;BME280;23691;52.486;4.650;2023-06-26T13:39:03;101969.81;;;28.71;37.44
37852;BME280;23691;52.486;4.650;2023-06-26T13:41:32;101972.25;;;28.95;37.31
37852;BME280;23691;52.486;4.650;2023-06-26T13:43:59;101968.78;;;28.77;37.54
37852;BME280;23691;52.486;4.650;2023-06-26T13:46:24;101973.34;;;28.94;37.00
37852;BME280;23691;52.486;4.650;2023-06-26T13:48:50;101977.38;;;28.86;37.23
37852;BME280;23691;52.486;4.650;2023-06-26T13:51:15;101973.09;;;28.95;36.96
37852;BME280;23691;52.486;4.650;2023-06-26T13:53:43;101982.22;;;28.74;37.21
37852;BME280;23691;52.486;4.650;2023-06-26T13:56:08;101987.16;;;28.99;36.86
37852;BME280;23691;52.486;4.650;2023-06-26T13:58:35;101986.44;;;28.81;36.98
37852;BME280;23691;52.486;4.650;2023-06-26T14:01:01;101992.41;;;28.73;36.94
37852;BME280;23691;52.486;4.650;2023-06-26T14:03:28;101992.59;;;28.66;36.93
37852;BME280;23691;52.486;4.650;2023-06-26T14:05:57;101989.78;;;28.61;37.29
37852;BME280;23691;52.486;4.650;2023-06-26T14:08:22;102004.38;;;28.40;37.99
37852;BME280;23691;52.486;4.650;2023-06-26T14:13:49;102002.47;;;28.62;37.35
37852;BME280;23691;52.486;4.650;2023-06-26T14:16:18;102009.06;;;28.61;37.09
37852;BME280;23691;52.486;4.650;2023-06-26T14:18:44;102004.13;;;28.63;37.17